Airfield :
LOGIN :

Register | Disclaimer

   EN    FR    IT 

 










Legend :    VFR   Marginal VFR   IFR   Intensive IFR   Very Intensive IFR
Visi :
Ceiling :
>= 8 km
>= 3000ft
5 to 8 km
1000 to 3000 ft
1500m to 5 km
500 to 1000 ft
800 to 1500m
200 to 500 ft
< 800m
< 200 ft
Symbols :   Thunderstorms  Fog  Heavy snow  Heavy precipitations  Wind > 20 kt
SIGMETs :     Misc.  Thunderstorms  Icing  Turbulence  Mountain Waves  Volcanic Ashes






- Airport Elevation : 288 ft
- IATA code : BZZ


EGVN - RAF Brize Norton

CURRENT METAR :
  • 200150Z 22011KT 9999 -DZ FEW015 BKN040 09/07 Q1010 TEMPO SCT022 RMK BLU TEMPO WHT

EXPIRED METARs :
  • 200120Z 22011G22KT 9999 FEW015 BKN040 09/06 Q1010 NOSIG RMK BLU BLU
  • 200050Z 22009G19KT 9999 FEW013 SCT030 BKN040 09/07 Q1011 NOSIG RMK BLU BLU
  • 200020Z 22009KT 9999 FEW007 SCT013 BKN027 09/07 Q1011 BECMG FEW014 SCT022 RMK GRN BECMG WHT
  • 192350Z 22009KT 9999 FEW007 SCT013 BKN020 09/07 Q1011 BECMG FEW014 RMK GRN BECMG WHT
  • 192320Z 22008KT 9999 5000NW -DZ SCT007 BKN014 BKN025 08/07 Q1011 BECMG 4000
  • 192250Z 21009KT 9999 -DZ FEW007 BKN011 BKN020 08/07 Q1012 NOSIG

TAF AMD TAF EGVN
Valid from the 20 at 00:00 until the 21 at 00:00 UTC


192325Z 2000/2024 22012KT 9999 BKN025
TEMPO 2000/2010 BKN015
PROB40
TEMPO 2000/2010 4000 -DZ BKN012
BECMG 2004/2007 21015G25KT
TEMPO 2010/2013 7000 RA BKN010
PROB30
TEMPO 2010/2013 26025G35KT 3000 +SHRA
BECMG 2013/2016 27013KT
PROB30
TEMPO 2013/2017 6000 SHRA SCT015



MET'MAP, your aeronautical weather chart ! - Copyright ORBIFLY December 2007 - Disclaimer

ORBIFLY MET'MAP TEAM :

Programming & Development : Alexandra Zaïnal
Concept & original design : Baudouin d'Aumeries
Assistance for programming : Marc-Olivier Méhu
Technical & hardware support : Manuel Goepfert

Contact : metmap@orbifly.com




SOURCES & CREDITS :

   NOAA